createdAt,value
2022-12-04T00:02:54.240Z,36.67
2022-12-04T00:08:02.250Z,36.87
2022-12-04T00:13:08.043Z,35.60
2022-12-04T00:18:15.470Z,36.53
2022-12-04T00:23:23.405Z,36.27
2022-12-04T00:28:28.300Z,38.80
2022-12-04T00:33:33.261Z,38.47
2022-12-04T00:38:41.276Z,36.97
2022-12-04T00:43:46.556Z,39.13
2022-12-04T00:48:51.643Z,38.97
2022-12-04T00:53:59.352Z,38.60
2022-12-04T00:59:04.294Z,42.93
2022-12-04T01:04:09.475Z,43.03
2022-12-04T01:09:17.064Z,43.33
2022-12-04T01:14:22.162Z,42.90
2022-12-04T01:19:27.410Z,45.33
2022-12-04T01:24:35.164Z,43.20
2022-12-04T01:29:41.451Z,42.97
2022-12-04T01:34:46.472Z,44.73
2022-12-04T01:39:54.332Z,46.87
2022-12-04T01:45:30.547Z,44.27
2022-12-04T01:50:38.546Z,47.17
2022-12-04T01:55:46.964Z,48.37
2022-12-04T02:00:58.634Z,43.13
2022-12-04T02:06:05.083Z,47.03
2022-12-04T02:11:30.611Z,44.63
2022-12-04T02:16:44.697Z,43.47
2022-12-04T02:21:56.923Z,39.30
2022-12-04T02:27:11.611Z,45.53
2022-12-04T02:32:27.928Z,45.30
2022-12-04T02:37:37.457Z,44.73
2022-12-04T02:42:45.446Z,48.00
2022-12-04T02:47:56.049Z,44.20
2022-12-04T02:53:08.356Z,43.63
2022-12-04T02:58:17.730Z,44.07
2022-12-04T03:03:31.078Z,43.73
2022-12-04T03:08:40.437Z,45.27
2022-12-04T03:13:51.332Z,46.37
2022-12-04T03:19:05.105Z,45.07
2022-12-04T03:24:17.842Z,45.33
2022-12-04T03:29:25.536Z,49.20
2022-12-04T03:34:38.383Z,47.47
2022-12-04T03:39:49.957Z,47.10
2022-12-04T03:45:04.192Z,49.57
2022-12-04T03:50:19.387Z,49.70
2022-12-04T03:55:29.609Z,48.07
2022-12-04T04:00:39.458Z,49.13
2022-12-04T04:05:50.891Z,48.53
2022-12-04T04:11:03.059Z,46.77
2022-12-04T04:16:25.604Z,45.13
2022-12-04T04:21:52.635Z,46.37
2022-12-04T04:27:01.220Z,43.50
2022-12-04T04:32:13.130Z,42.60
2022-12-04T04:37:29.783Z,46.03
2022-12-04T04:42:39.082Z,48.33
2022-12-04T04:47:50.507Z,48.17
2022-12-04T04:53:05.288Z,47.30
2022-12-04T04:58:11.881Z,46.53
2022-12-04T05:03:17.083Z,44.17
2022-12-04T05:08:24.936Z,46.97
2022-12-04T05:13:31.735Z,45.27
2022-12-04T05:18:41.219Z,47.13
2022-12-04T05:23:48.974Z,48.47
2022-12-04T05:28:55.192Z,47.90
2022-12-04T05:34:00.857Z,45.67
2022-12-04T05:39:11.262Z,51.30
2022-12-04T05:44:16.998Z,49.97
2022-12-04T05:49:24.011Z,46.53
2022-12-04T05:54:31.665Z,50.13
2022-12-04T05:59:37.090Z,47.13
2022-12-04T06:04:42.084Z,49.40
2022-12-04T06:09:51.293Z,47.67
2022-12-04T06:14:56.315Z,47.83
2022-12-04T06:20:09.513Z,47.90
2022-12-04T06:25:19.713Z,45.80
2022-12-04T06:30:25.727Z,47.60
2022-12-04T06:35:30.759Z,50.17
2022-12-04T06:40:42.197Z,50.70
2022-12-04T06:45:47.253Z,51.40
2022-12-04T06:50:52.293Z,49.90
2022-12-04T06:56:01.075Z,50.67
2022-12-04T07:01:10.095Z,48.20
2022-12-04T07:06:17.173Z,49.77
2022-12-04T07:11:25.546Z,50.53
2022-12-04T07:16:35.433Z,55.47
2022-12-04T07:21:44.826Z,53.13
2022-12-04T07:26:52.312Z,50.53
2022-12-04T07:31:58.374Z,50.10
2022-12-04T07:37:03.563Z,52.40
2022-12-04T07:42:14.200Z,54.47
2022-12-04T07:47:19.274Z,52.23
2022-12-04T07:52:26.173Z,51.47
2022-12-04T07:57:33.774Z,48.10
2022-12-04T08:02:39.936Z,52.27
2022-12-04T08:07:44.962Z,49.40
2022-12-04T08:12:52.679Z,49.00
2022-12-04T08:17:58.077Z,50.47
2022-12-04T08:23:03.046Z,49.07
2022-12-04T08:28:12.049Z,45.50
2022-12-04T08:33:20.620Z,47.93
2022-12-04T08:38:25.844Z,48.90
2022-12-04T08:43:33.883Z,48.27
2022-12-04T08:48:39.227Z,48.50
2022-12-04T08:53:45.741Z,49.50
2022-12-04T08:58:53.599Z,52.27
2022-12-04T09:03:59.873Z,49.17
2022-12-04T09:09:06.901Z,48.47
2022-12-04T09:14:15.006Z,49.93
2022-12-04T09:19:20.175Z,45.77
2022-12-04T09:24:25.356Z,44.20
2022-12-04T09:29:32.954Z,45.83
2022-12-04T09:34:38.373Z,46.87
2022-12-04T09:39:43.309Z,47.67
2022-12-04T09:44:59.036Z,49.50
2022-12-04T09:50:09.883Z,52.33
2022-12-04T09:55:21.247Z,49.07
2022-12-04T10:00:30.432Z,48.07
2022-12-04T10:05:48.742Z,49.20
2022-12-04T10:11:02.912Z,44.77
2022-12-04T10:16:19.744Z,44.97
2022-12-04T10:21:39.440Z,44.30
2022-12-04T10:26:48.577Z,46.70
2022-12-04T10:32:00.346Z,47.33
2022-12-04T10:37:14.702Z,48.50
2022-12-04T10:42:30.286Z,46.93
2022-12-04T10:47:44.085Z,48.00
2022-12-04T10:52:50.460Z,48.20
2022-12-04T10:57:55.484Z,51.80
2022-12-04T11:03:05.639Z,49.77
2022-12-04T11:08:18.284Z,47.37
2022-12-04T11:13:25.105Z,46.57
2022-12-04T11:18:35.632Z,46.50
2022-12-04T11:23:46.749Z,49.07
2022-12-04T11:28:58.023Z,49.97
2022-12-04T11:34:11.029Z,44.87
2022-12-04T11:39:22.330Z,46.67
2022-12-04T11:44:29.627Z,48.03
2022-12-04T11:49:40.957Z,50.47
2022-12-04T11:55:05.119Z,49.33
2022-12-04T12:00:18.550Z,50.33
2022-12-04T12:05:57.957Z,49.27
2022-12-04T12:11:11.036Z,50.33
2022-12-04T12:16:26.923Z,51.57
2022-12-04T12:21:41.102Z,49.67
2022-12-04T12:26:55.205Z,51.97
2022-12-04T12:32:14.425Z,49.97
2022-12-04T12:37:28.743Z,48.87
2022-12-04T12:42:37.955Z,50.80
2022-12-04T12:47:48.198Z,50.53
2022-12-04T12:53:01.276Z,51.90
2022-12-04T12:58:14.498Z,47.27
2022-12-04T13:03:47.999Z,53.43
2022-12-04T13:09:06.021Z,48.47
2022-12-04T13:14:16.091Z,50.67
2022-12-04T13:19:26.101Z,48.97
2022-12-04T13:25:12.424Z,47.57
2022-12-04T13:30:22.596Z,48.87
2022-12-04T13:35:35.911Z,48.63
2022-12-04T13:40:50.341Z,50.17
2022-12-04T13:45:57.728Z,50.37
2022-12-04T13:51:29.354Z,52.13
2022-12-04T13:56:37.005Z,54.37
2022-12-04T14:01:44.995Z,51.07
2022-12-04T14:06:54.718Z,54.47
2022-12-04T14:12:05.977Z,55.97
2022-12-04T14:17:22.357Z,54.27
2022-12-04T14:22:41.959Z,53.33
2022-12-04T14:27:52.036Z,55.00
2022-12-04T14:33:06.429Z,50.23
2022-12-04T14:38:21.261Z,51.97
2022-12-04T14:43:32.986Z,54.10
2022-12-04T14:48:46.681Z,52.87
2022-12-04T14:54:00.623Z,53.97
2022-12-04T14:59:19.142Z,55.93
2022-12-04T15:04:28.430Z,58.33
2022-12-04T15:09:45.901Z,59.53
2022-12-04T15:14:54.043Z,56.70
2022-12-04T15:20:11.137Z,61.23
2022-12-04T15:25:24.042Z,58.50
2022-12-04T15:30:34.814Z,57.67
2022-12-04T15:35:44.074Z,57.77
2022-12-04T15:40:57.483Z,57.10
2022-12-04T15:46:16.131Z,54.47
2022-12-04T15:51:24.214Z,54.03
2022-12-04T15:56:29.676Z,51.33
2022-12-04T16:01:46.058Z,50.80
2022-12-04T16:06:56.530Z,54.37
2022-12-04T16:12:03.337Z,53.67
2022-12-04T16:17:13.697Z,52.03
2022-12-04T16:22:24.278Z,55.87
2022-12-04T16:27:29.608Z,51.17
2022-12-04T16:32:37.450Z,55.20
2022-12-04T16:37:42.688Z,53.37
2022-12-04T16:42:49.945Z,53.00
2022-12-04T16:47:58.638Z,50.73
2022-12-04T16:53:03.623Z,48.60
2022-12-04T16:58:09.311Z,47.40
2022-12-04T17:03:23.831Z,51.57
2022-12-04T17:08:29.783Z,48.73
2022-12-04T17:13:34.993Z,51.90
2022-12-04T17:18:42.488Z,47.60
2022-12-04T17:23:48.042Z,48.87
2022-12-04T17:28:54.048Z,48.33
2022-12-04T17:34:01.814Z,48.57
2022-12-04T17:39:08.337Z,50.33
2022-12-04T17:44:14.417Z,56.03
2022-12-04T17:49:24.453Z,53.00
2022-12-04T17:54:29.640Z,50.17
2022-12-04T17:59:34.751Z,52.10
2022-12-04T18:04:42.836Z,47.90
2022-12-04T18:09:47.837Z,53.60
2022-12-04T18:14:54.286Z,50.73
2022-12-04T18:20:05.043Z,51.20
2022-12-04T18:25:11.439Z,52.00
2022-12-04T18:30:17.036Z,56.57
2022-12-04T18:35:24.767Z,52.53
2022-12-04T18:40:30.177Z,55.07
2022-12-04T18:45:38.145Z,54.07
2022-12-04T18:50:46.444Z,51.33
2022-12-04T18:55:52.135Z,50.53
2022-12-04T19:00:58.333Z,51.87
2022-12-04T19:06:07.185Z,46.87
2022-12-04T19:11:14.944Z,46.83
2022-12-04T19:16:21.247Z,46.00
2022-12-04T19:21:29.750Z,47.03
2022-12-04T19:26:39.001Z,41.40
2022-12-04T19:31:44.959Z,40.37
2022-12-04T19:36:53.248Z,41.07
2022-12-04T19:41:58.678Z,39.10
2022-12-04T19:47:04.254Z,38.50
2022-12-04T19:52:12.496Z,40.27
2022-12-04T19:57:18.362Z,39.20
2022-12-04T20:02:24.068Z,40.87
2022-12-04T20:07:32.485Z,40.60
2022-12-04T20:12:38.063Z,36.70
2022-12-04T20:17:43.519Z,34.77
2022-12-04T20:22:51.658Z,34.63
2022-12-04T20:27:57.178Z,35.40
2022-12-04T20:33:02.756Z,33.57
2022-12-04T20:38:11.978Z,34.60
2022-12-04T20:43:17.639Z,34.07
2022-12-04T20:48:23.173Z,34.37
2022-12-04T20:53:32.745Z,35.27
2022-12-04T20:58:39.542Z,37.70
2022-12-04T21:03:45.823Z,37.17
2022-12-04T21:08:57.440Z,33.80
2022-12-04T21:14:17.029Z,35.07
2022-12-04T21:19:24.656Z,35.07
2022-12-04T21:24:37.037Z,32.47
2022-12-04T21:29:43.232Z,33.10
2022-12-04T21:34:48.143Z,35.47
2022-12-04T21:39:56.019Z,33.13
2022-12-04T21:45:01.983Z,33.23
2022-12-04T21:50:07.848Z,32.90
2022-12-04T21:55:15.518Z,31.87
2022-12-04T22:00:20.922Z,31.43
2022-12-04T22:05:25.937Z,30.00
2022-12-04T22:10:33.408Z,26.97
2022-12-04T22:15:40.782Z,27.73
2022-12-04T22:20:46.098Z,25.33
2022-12-04T22:25:53.718Z,23.90
2022-12-04T22:30:58.823Z,22.90
2022-12-04T22:36:08.237Z,22.43
2022-12-04T22:41:18.910Z,22.63
2022-12-04T22:46:24.008Z,24.53
2022-12-04T22:51:29.704Z,24.10
2022-12-04T22:56:37.526Z,23.33
2022-12-04T23:01:42.599Z,23.40
2022-12-04T23:06:47.538Z,23.87
2022-12-04T23:11:57.447Z,25.17
2022-12-04T23:17:02.467Z,23.00
2022-12-04T23:22:07.468Z,23.13
2022-12-04T23:27:15.050Z,25.27
2022-12-04T23:32:19.919Z,25.20
2022-12-04T23:37:24.810Z,22.93
2022-12-04T23:42:34.367Z,35.13
2022-12-04T23:47:39.412Z,25.90
2022-12-04T23:52:44.449Z,23.83
2022-12-04T23:57:51.950Z,24.63
